sensor_id;sensor_type;location;lat;lon;timestamp;P1;durP1;ratioP1;P2;durP2;ratioP2
22826;SDS011;11580;52.562;13.418;2022-12-18T00:02:25;27.53;;;15.90;;
22826;SDS011;11580;52.562;13.418;2022-12-18T00:04:52;22.60;;;15.37;;
22826;SDS011;11580;52.562;13.418;2022-12-18T00:07:20;26.60;;;16.67;;
22826;SDS011;11580;52.562;13.418;2022-12-18T00:09:48;30.87;;;16.17;;
22826;SDS011;11580;52.562;13.418;2022-12-18T00:12:15;26.30;;;16.40;;
22826;SDS011;11580;52.562;13.418;2022-12-18T00:14:42;23.60;;;14.40;;
22826;SDS011;11580;52.562;13.418;2022-12-18T00:17:09;24.93;;;16.00;;
22826;SDS011;11580;52.562;13.418;2022-12-18T00:19:36;26.03;;;15.87;;
22826;SDS011;11580;52.562;13.418;2022-12-18T00:22:03;29.43;;;16.30;;
22826;SDS011;11580;52.562;13.418;2022-12-18T00:24:31;28.63;;;16.90;;
22826;SDS011;11580;52.562;13.418;2022-12-18T00:27:00;28.37;;;16.37;;
22826;SDS011;11580;52.562;13.418;2022-12-18T00:29:27;33.43;;;17.87;;
22826;SDS011;11580;52.562;13.418;2022-12-18T00:31:54;34.77;;;18.30;;
22826;SDS011;11580;52.562;13.418;2022-12-18T00:34:21;32.70;;;16.33;;
22826;SDS011;11580;52.562;13.418;2022-12-18T00:36:48;30.43;;;17.57;;
22826;SDS011;11580;52.562;13.418;2022-12-18T00:39:15;32.97;;;17.17;;
22826;SDS011;11580;52.562;13.418;2022-12-18T00:41:43;28.53;;;16.10;;
22826;SDS011;11580;52.562;13.418;2022-12-18T00:44:29;28.60;;;16.30;;
22826;SDS011;11580;52.562;13.418;2022-12-18T00:46:57;28.50;;;16.30;;
22826;SDS011;11580;52.562;13.418;2022-12-18T00:49:25;21.37;;;15.17;;
22826;SDS011;11580;52.562;13.418;2022-12-18T00:51:52;23.47;;;14.20;;
22826;SDS011;11580;52.562;13.418;2022-12-18T00:54:19;27.87;;;16.10;;
22826;SDS011;11580;52.562;13.418;2022-12-18T00:56:46;27.27;;;16.70;;
22826;SDS011;11580;52.562;13.418;2022-12-18T00:59:13;27.03;;;14.77;;
22826;SDS011;11580;52.562;13.418;2022-12-18T01:01:42;21.97;;;14.03;;
22826;SDS011;11580;52.562;13.418;2022-12-18T01:04:09;24.30;;;15.70;;
22826;SDS011;11580;52.562;13.418;2022-12-18T01:06:36;22.53;;;14.30;;
22826;SDS011;11580;52.562;13.418;2022-12-18T01:09:04;23.77;;;14.47;;
22826;SDS011;11580;52.562;13.418;2022-12-18T01:11:31;23.67;;;14.13;;
22826;SDS011;11580;52.562;13.418;2022-12-18T01:13:58;27.47;;;15.33;;
22826;SDS011;11580;52.562;13.418;2022-12-18T01:16:25;25.67;;;14.43;;
22826;SDS011;11580;52.562;13.418;2022-12-18T01:18:54;22.00;;;13.43;;
22826;SDS011;11580;52.562;13.418;2022-12-18T01:21:22;24.90;;;15.07;;
22826;SDS011;11580;52.562;13.418;2022-12-18T01:23:53;23.67;;;13.93;;
22826;SDS011;11580;52.562;13.418;2022-12-18T01:26:22;23.40;;;13.40;;
22826;SDS011;11580;52.562;13.418;2022-12-18T01:28:53;23.57;;;14.20;;
22826;SDS011;11580;52.562;13.418;2022-12-18T01:31:22;22.20;;;14.63;;
22826;SDS011;11580;52.562;13.418;2022-12-18T01:33:54;20.27;;;13.30;;
22826;SDS011;11580;52.562;13.418;2022-12-18T01:36:23;25.07;;;13.97;;
22826;SDS011;11580;52.562;13.418;2022-12-18T01:38:54;26.30;;;15.00;;
22826;SDS011;11580;52.562;13.418;2022-12-18T01:41:23;29.03;;;15.87;;
22826;SDS011;11580;52.562;13.418;2022-12-18T01:47:28;22.00;;;13.83;;
22826;SDS011;11580;52.562;13.418;2022-12-18T01:50:03;24.10;;;14.57;;
22826;SDS011;11580;52.562;13.418;2022-12-18T01:52:40;21.20;;;12.83;;
22826;SDS011;11580;52.562;13.418;2022-12-18T01:55:10;29.17;;;14.97;;
22826;SDS011;11580;52.562;13.418;2022-12-18T01:57:38;21.73;;;12.83;;
22826;SDS011;11580;52.562;13.418;2022-12-18T02:00:08;25.90;;;14.03;;
22826;SDS011;11580;52.562;13.418;2022-12-18T02:02:41;20.60;;;13.23;;
22826;SDS011;11580;52.562;13.418;2022-12-18T02:05:13;24.47;;;15.97;;
22826;SDS011;11580;52.562;13.418;2022-12-18T02:07:48;22.07;;;13.17;;
22826;SDS011;11580;52.562;13.418;2022-12-18T02:10:29;25.37;;;14.63;;
22826;SDS011;11580;52.562;13.418;2022-12-18T02:13:08;22.00;;;13.93;;
22826;SDS011;11580;52.562;13.418;2022-12-18T02:15:48;23.57;;;15.40;;
22826;SDS011;11580;52.562;13.418;2022-12-18T02:18:27;23.90;;;13.90;;
22826;SDS011;11580;52.562;13.418;2022-12-18T02:21:04;25.87;;;14.10;;
22826;SDS011;11580;52.562;13.418;2022-12-18T02:23:51;25.73;;;14.53;;
22826;SDS011;11580;52.562;13.418;2022-12-18T02:26:28;28.03;;;15.40;;
22826;SDS011;11580;52.562;13.418;2022-12-18T02:29:02;28.13;;;15.27;;
22826;SDS011;11580;52.562;13.418;2022-12-18T02:31:37;30.40;;;16.37;;
22826;SDS011;11580;52.562;13.418;2022-12-18T02:34:11;25.77;;;14.80;;
22826;SDS011;11580;52.562;13.418;2022-12-18T02:38:00;25.90;;;14.13;;
22826;SDS011;11580;52.562;13.418;2022-12-18T02:40:33;30.23;;;16.53;;
22826;SDS011;11580;52.562;13.418;2022-12-18T02:43:08;28.00;;;16.63;;
22826;SDS011;11580;52.562;13.418;2022-12-18T02:45:45;29.53;;;17.50;;
22826;SDS011;11580;52.562;13.418;2022-12-18T02:48:15;30.03;;;16.40;;
22826;SDS011;11580;52.562;13.418;2022-12-18T02:50:45;30.40;;;17.70;;
22826;SDS011;11580;52.562;13.418;2022-12-18T02:53:23;32.17;;;18.60;;
22826;SDS011;11580;52.562;13.418;2022-12-18T02:56:04;35.00;;;18.87;;
22826;SDS011;11580;52.562;13.418;2022-12-18T02:58:41;33.10;;;18.20;;
22826;SDS011;11580;52.562;13.418;2022-12-18T03:01:30;33.93;;;19.23;;
22826;SDS011;11580;52.562;13.418;2022-12-18T03:04:06;39.93;;;20.83;;
22826;SDS011;11580;52.562;13.418;2022-12-18T03:06:41;38.47;;;21.13;;
22826;SDS011;11580;52.562;13.418;2022-12-18T03:09:14;41.40;;;21.47;;
22826;SDS011;11580;52.562;13.418;2022-12-18T03:11:48;38.63;;;21.47;;
22826;SDS011;11580;52.562;13.418;2022-12-18T03:14:39;43.53;;;22.40;;
22826;SDS011;11580;52.562;13.418;2022-12-18T03:17:13;39.27;;;21.30;;
22826;SDS011;11580;52.562;13.418;2022-12-18T03:19:45;41.03;;;22.33;;
22826;SDS011;11580;52.562;13.418;2022-12-18T03:22:15;43.57;;;22.13;;
22826;SDS011;11580;52.562;13.418;2022-12-18T03:24:48;43.43;;;21.93;;
22826;SDS011;11580;52.562;13.418;2022-12-18T03:27:18;43.70;;;22.40;;
22826;SDS011;11580;52.562;13.418;2022-12-18T03:29:52;37.77;;;21.33;;
22826;SDS011;11580;52.562;13.418;2022-12-18T03:32:35;49.60;;;22.93;;
22826;SDS011;11580;52.562;13.418;2022-12-18T03:35:11;49.90;;;22.60;;
22826;SDS011;11580;52.562;13.418;2022-12-18T03:37:46;49.07;;;24.43;;
22826;SDS011;11580;52.562;13.418;2022-12-18T03:40:14;43.80;;;21.50;;
22826;SDS011;11580;52.562;13.418;2022-12-18T03:42:44;45.73;;;24.40;;
22826;SDS011;11580;52.562;13.418;2022-12-18T03:45:20;45.30;;;21.17;;
22826;SDS011;11580;52.562;13.418;2022-12-18T03:47:58;41.30;;;22.17;;
22826;SDS011;11580;52.562;13.418;2022-12-18T03:50:36;43.50;;;21.83;;
22826;SDS011;11580;52.562;13.418;2022-12-18T03:53:14;32.20;;;20.20;;
22826;SDS011;11580;52.562;13.418;2022-12-18T03:55:52;36.87;;;21.27;;
22826;SDS011;11580;52.562;13.418;2022-12-18T03:58:21;40.13;;;20.97;;
22826;SDS011;11580;52.562;13.418;2022-12-18T04:01:07;38.30;;;19.20;;
22826;SDS011;11580;52.562;13.418;2022-12-18T04:03:39;38.50;;;19.20;;
22826;SDS011;11580;52.562;13.418;2022-12-18T04:06:09;36.77;;;19.77;;
22826;SDS011;11580;52.562;13.418;2022-12-18T04:08:39;36.70;;;20.20;;
22826;SDS011;11580;52.562;13.418;2022-12-18T04:11:10;30.63;;;17.07;;
22826;SDS011;11580;52.562;13.418;2022-12-18T04:13:38;26.30;;;16.57;;
22826;SDS011;11580;52.562;13.418;2022-12-18T04:16:12;31.20;;;16.70;;
22826;SDS011;11580;52.562;13.418;2022-12-18T04:18:42;31.70;;;17.57;;
22826;SDS011;11580;52.562;13.418;2022-12-18T04:21:09;29.80;;;15.83;;
22826;SDS011;11580;52.562;13.418;2022-12-18T04:23:37;26.47;;;15.37;;
22826;SDS011;11580;52.562;13.418;2022-12-18T04:26:04;31.00;;;17.83;;
22826;SDS011;11580;52.562;13.418;2022-12-18T04:28:46;25.40;;;17.33;;
22826;SDS011;11580;52.562;13.418;2022-12-18T04:31:15;30.50;;;16.67;;
22826;SDS011;11580;52.562;13.418;2022-12-18T04:33:42;30.70;;;16.83;;
22826;SDS011;11580;52.562;13.418;2022-12-18T04:36:10;25.40;;;15.07;;
22826;SDS011;11580;52.562;13.418;2022-12-18T04:38:39;26.97;;;17.57;;
22826;SDS011;11580;52.562;13.418;2022-12-18T04:41:13;24.37;;;15.50;;
22826;SDS011;11580;52.562;13.418;2022-12-18T04:43:42;25.60;;;14.27;;
22826;SDS011;11580;52.562;13.418;2022-12-18T04:46:09;29.37;;;16.37;;
22826;SDS011;11580;52.562;13.418;2022-12-18T04:48:38;25.27;;;15.53;;
22826;SDS011;11580;52.562;13.418;2022-12-18T04:51:05;27.00;;;15.00;;
22826;SDS011;11580;52.562;13.418;2022-12-18T04:53:33;29.93;;;15.77;;
22826;SDS011;11580;52.562;13.418;2022-12-18T04:56:04;28.13;;;15.90;;
22826;SDS011;11580;52.562;13.418;2022-12-18T04:58:33;31.87;;;14.73;;
22826;SDS011;11580;52.562;13.418;2022-12-18T05:01:01;28.00;;;16.27;;
22826;SDS011;11580;52.562;13.418;2022-12-18T05:03:28;27.37;;;16.53;;
22826;SDS011;11580;52.562;13.418;2022-12-18T05:05:57;27.43;;;14.80;;
22826;SDS011;11580;52.562;13.418;2022-12-18T05:08:24;28.47;;;14.90;;
22826;SDS011;11580;52.562;13.418;2022-12-18T05:10:57;26.57;;;13.97;;
22826;SDS011;11580;52.562;13.418;2022-12-18T05:13:26;27.67;;;14.60;;
22826;SDS011;11580;52.562;13.418;2022-12-18T05:15:54;27.83;;;14.37;;
22826;SDS011;11580;52.562;13.418;2022-12-18T05:18:21;29.27;;;15.77;;
22826;SDS011;11580;52.562;13.418;2022-12-18T05:20:49;29.23;;;16.53;;
22826;SDS011;11580;52.562;13.418;2022-12-18T05:23:18;30.37;;;16.10;;
22826;SDS011;11580;52.562;13.418;2022-12-18T05:25:50;25.27;;;13.90;;
22826;SDS011;11580;52.562;13.418;2022-12-18T05:28:19;27.50;;;15.60;;
22826;SDS011;11580;52.562;13.418;2022-12-18T05:30:47;26.00;;;14.60;;
22826;SDS011;11580;52.562;13.418;2022-12-18T05:33:16;27.37;;;15.20;;
22826;SDS011;11580;52.562;13.418;2022-12-18T05:35:44;22.27;;;13.60;;
22826;SDS011;11580;52.562;13.418;2022-12-18T05:38:16;31.60;;;15.37;;
22826;SDS011;11580;52.562;13.418;2022-12-18T05:40:46;23.10;;;13.80;;
22826;SDS011;11580;52.562;13.418;2022-12-18T05:43:14;25.13;;;15.40;;
22826;SDS011;11580;52.562;13.418;2022-12-18T05:45:42;21.17;;;14.00;;
22826;SDS011;11580;52.562;13.418;2022-12-18T05:48:12;26.40;;;14.27;;
22826;SDS011;11580;52.562;13.418;2022-12-18T05:50:41;27.17;;;14.50;;
22826;SDS011;11580;52.562;13.418;2022-12-18T05:53:10;22.63;;;14.40;;
22826;SDS011;11580;52.562;13.418;2022-12-18T05:55:41;26.17;;;14.07;;
22826;SDS011;11580;52.562;13.418;2022-12-18T05:58:09;21.83;;;13.33;;
22826;SDS011;11580;52.562;13.418;2022-12-18T06:00:41;26.60;;;14.27;;
22826;SDS011;11580;52.562;13.418;2022-12-18T06:03:10;27.03;;;14.77;;
22826;SDS011;11580;52.562;13.418;2022-12-18T06:05:39;26.87;;;15.03;;
22826;SDS011;11580;52.562;13.418;2022-12-18T06:08:08;29.37;;;15.80;;
22826;SDS011;11580;52.562;13.418;2022-12-18T06:10:36;28.53;;;14.90;;
22826;SDS011;11580;52.562;13.418;2022-12-18T06:13:05;28.10;;;16.20;;
22826;SDS011;11580;52.562;13.418;2022-12-18T06:15:35;30.27;;;17.03;;
22826;SDS011;11580;52.562;13.418;2022-12-18T06:18:03;29.80;;;16.30;;
22826;SDS011;11580;52.562;13.418;2022-12-18T06:20:30;32.23;;;15.53;;
22826;SDS011;11580;52.562;13.418;2022-12-18T06:22:57;37.27;;;19.63;;
22826;SDS011;11580;52.562;13.418;2022-12-18T06:25:24;34.63;;;18.13;;
22826;SDS011;11580;52.562;13.418;2022-12-18T06:27:51;28.90;;;15.37;;
22826;SDS011;11580;52.562;13.418;2022-12-18T06:30:20;32.33;;;17.30;;
22826;SDS011;11580;52.562;13.418;2022-12-18T06:32:47;34.00;;;17.90;;
22826;SDS011;11580;52.562;13.418;2022-12-18T06:35:14;34.07;;;19.03;;
22826;SDS011;11580;52.562;13.418;2022-12-18T06:37:42;30.70;;;17.63;;
22826;SDS011;11580;52.562;13.418;2022-12-18T06:40:09;34.33;;;19.10;;
22826;SDS011;11580;52.562;13.418;2022-12-18T06:42:36;33.07;;;17.70;;
22826;SDS011;11580;52.562;13.418;2022-12-18T06:45:04;36.23;;;18.20;;
22826;SDS011;11580;52.562;13.418;2022-12-18T06:47:33;34.03;;;17.60;;
22826;SDS011;11580;52.562;13.418;2022-12-18T06:50:00;35.80;;;17.60;;
22826;SDS011;11580;52.562;13.418;2022-12-18T06:52:27;36.03;;;18.40;;
22826;SDS011;11580;52.562;13.418;2022-12-18T06:54:54;32.10;;;17.60;;
22826;SDS011;11580;52.562;13.418;2022-12-18T06:57:21;36.67;;;19.20;;
22826;SDS011;11580;52.562;13.418;2022-12-18T06:59:48;40.57;;;18.57;;
22826;SDS011;11580;52.562;13.418;2022-12-18T07:02:15;31.67;;;16.77;;
22826;SDS011;11580;52.562;13.418;2022-12-18T07:04:44;36.50;;;18.37;;
22826;SDS011;11580;52.562;13.418;2022-12-18T07:07:11;34.37;;;19.30;;
22826;SDS011;11580;52.562;13.418;2022-12-18T07:09:38;33.80;;;17.10;;
22826;SDS011;11580;52.562;13.418;2022-12-18T07:12:05;30.43;;;16.67;;
22826;SDS011;11580;52.562;13.418;2022-12-18T07:14:33;34.23;;;17.53;;
22826;SDS011;11580;52.562;13.418;2022-12-18T07:17:00;32.40;;;16.93;;
22826;SDS011;11580;52.562;13.418;2022-12-18T07:19:27;35.20;;;19.90;;
22826;SDS011;11580;52.562;13.418;2022-12-18T07:21:56;36.07;;;17.03;;
22826;SDS011;11580;52.562;13.418;2022-12-18T07:24:23;32.57;;;17.83;;
22826;SDS011;11580;52.562;13.418;2022-12-18T07:26:51;30.63;;;16.10;;
22826;SDS011;11580;52.562;13.418;2022-12-18T07:29:18;31.13;;;16.60;;
22826;SDS011;11580;52.562;13.418;2022-12-18T07:31:45;32.60;;;17.00;;
22826;SDS011;11580;52.562;13.418;2022-12-18T07:34:12;25.83;;;14.77;;
22826;SDS011;11580;52.562;13.418;2022-12-18T07:36:41;28.40;;;16.30;;
22826;SDS011;11580;52.562;13.418;2022-12-18T07:39:11;27.20;;;14.90;;
22826;SDS011;11580;52.562;13.418;2022-12-18T07:41:38;31.70;;;16.43;;
22826;SDS011;11580;52.562;13.418;2022-12-18T07:44:10;32.10;;;16.63;;
22826;SDS011;11580;52.562;13.418;2022-12-18T07:46:38;31.17;;;16.07;;
22826;SDS011;11580;52.562;13.418;2022-12-18T07:49:06;26.40;;;16.30;;
22826;SDS011;11580;52.562;13.418;2022-12-18T07:51:34;30.47;;;16.17;;
22826;SDS011;11580;52.562;13.418;2022-12-18T07:54:01;33.60;;;17.10;;
22826;SDS011;11580;52.562;13.418;2022-12-18T07:56:29;30.07;;;16.70;;
22826;SDS011;11580;52.562;13.418;2022-12-18T07:58:57;29.77;;;18.63;;
22826;SDS011;11580;52.562;13.418;2022-12-18T08:01:32;35.00;;;17.07;;
22826;SDS011;11580;52.562;13.418;2022-12-18T08:04:00;34.27;;;17.07;;
22826;SDS011;11580;52.562;13.418;2022-12-18T08:06:27;29.00;;;16.37;;
22826;SDS011;11580;52.562;13.418;2022-12-18T08:08:55;36.10;;;17.30;;
22826;SDS011;11580;52.562;13.418;2022-12-18T08:11:24;33.80;;;16.60;;
22826;SDS011;11580;52.562;13.418;2022-12-18T08:13:55;30.17;;;17.20;;
22826;SDS011;11580;52.562;13.418;2022-12-18T08:16:23;31.07;;;18.00;;
22826;SDS011;11580;52.562;13.418;2022-12-18T08:18:51;32.07;;;18.10;;
22826;SDS011;11580;52.562;13.418;2022-12-18T08:21:19;31.47;;;18.10;;
22826;SDS011;11580;52.562;13.418;2022-12-18T08:23:49;36.93;;;17.73;;
22826;SDS011;11580;52.562;13.418;2022-12-18T08:26:18;31.53;;;17.73;;
22826;SDS011;11580;52.562;13.418;2022-12-18T08:28:47;25.07;;;15.97;;
22826;SDS011;11580;52.562;13.418;2022-12-18T08:31:16;31.63;;;17.27;;
22826;SDS011;11580;52.562;13.418;2022-12-18T08:33:43;31.03;;;17.17;;
22826;SDS011;11580;52.562;13.418;2022-12-18T08:36:11;28.40;;;15.90;;
22826;SDS011;11580;52.562;13.418;2022-12-18T08:38:38;28.60;;;17.60;;
22826;SDS011;11580;52.562;13.418;2022-12-18T08:41:05;30.47;;;16.07;;
22826;SDS011;11580;52.562;13.418;2022-12-18T08:43:35;25.83;;;16.17;;
22826;SDS011;11580;52.562;13.418;2022-12-18T08:46:22;28.23;;;16.13;;
22826;SDS011;11580;52.562;13.418;2022-12-18T08:48:51;27.47;;;16.77;;
22826;SDS011;11580;52.562;13.418;2022-12-18T08:51:20;26.50;;;15.63;;
22826;SDS011;11580;52.562;13.418;2022-12-18T08:53:47;27.80;;;15.67;;
22826;SDS011;11580;52.562;13.418;2022-12-18T08:56:15;24.70;;;15.33;;
22826;SDS011;11580;52.562;13.418;2022-12-18T08:58:42;29.07;;;16.00;;
22826;SDS011;11580;52.562;13.418;2022-12-18T09:01:10;23.47;;;14.40;;
22826;SDS011;11580;52.562;13.418;2022-12-18T09:03:40;26.20;;;15.47;;
22826;SDS011;11580;52.562;13.418;2022-12-18T09:06:07;25.57;;;15.30;;
22826;SDS011;11580;52.562;13.418;2022-12-18T09:08:34;24.87;;;17.00;;
22826;SDS011;11580;52.562;13.418;2022-12-18T09:11:02;29.27;;;17.00;;
22826;SDS011;11580;52.562;13.418;2022-12-18T09:13:30;24.97;;;15.67;;
22826;SDS011;11580;52.562;13.418;2022-12-18T09:15:57;24.93;;;16.10;;
22826;SDS011;11580;52.562;13.418;2022-12-18T09:18:25;27.23;;;15.70;;
22826;SDS011;11580;52.562;13.418;2022-12-18T09:20:53;26.17;;;17.43;;
22826;SDS011;11580;52.562;13.418;2022-12-18T09:23:20;26.03;;;16.73;;
22826;SDS011;11580;52.562;13.418;2022-12-18T09:25:48;28.07;;;15.77;;
22826;SDS011;11580;52.562;13.418;2022-12-18T09:28:15;23.50;;;14.47;;
22826;SDS011;11580;52.562;13.418;2022-12-18T09:30:45;22.90;;;15.13;;
22826;SDS011;11580;52.562;13.418;2022-12-18T09:33:14;24.53;;;15.57;;
22826;SDS011;11580;52.562;13.418;2022-12-18T09:35:43;26.97;;;15.57;;
22826;SDS011;11580;52.562;13.418;2022-12-18T09:38:13;23.70;;;14.07;;
22826;SDS011;11580;52.562;13.418;2022-12-18T09:40:44;20.97;;;14.60;;
22826;SDS011;11580;52.562;13.418;2022-12-18T09:43:17;25.80;;;14.43;;
22826;SDS011;11580;52.562;13.418;2022-12-18T09:45:49;29.53;;;17.43;;
22826;SDS011;11580;52.562;13.418;2022-12-18T09:48:23;28.53;;;17.00;;
22826;SDS011;11580;52.562;13.418;2022-12-18T09:50:58;28.40;;;17.93;;
22826;SDS011;11580;52.562;13.418;2022-12-18T09:53:33;25.37;;;15.73;;
22826;SDS011;11580;52.562;13.418;2022-12-18T09:56:05;26.87;;;15.30;;
22826;SDS011;11580;52.562;13.418;2022-12-18T09:58:43;27.10;;;15.80;;
22826;SDS011;11580;52.562;13.418;2022-12-18T10:01:20;29.77;;;16.23;;
22826;SDS011;11580;52.562;13.418;2022-12-18T10:03:49;26.77;;;15.60;;
22826;SDS011;11580;52.562;13.418;2022-12-18T10:06:18;27.57;;;16.57;;
22826;SDS011;11580;52.562;13.418;2022-12-18T10:08:58;30.10;;;15.90;;
22826;SDS011;11580;52.562;13.418;2022-12-18T10:11:39;31.40;;;18.50;;
22826;SDS011;11580;52.562;13.418;2022-12-18T10:14:15;33.77;;;17.80;;
22826;SDS011;11580;52.562;13.418;2022-12-18T10:16:55;29.60;;;17.50;;
22826;SDS011;11580;52.562;13.418;2022-12-18T10:19:37;26.00;;;15.47;;
22826;SDS011;11580;52.562;13.418;2022-12-18T10:22:34;28.33;;;17.50;;
22826;SDS011;11580;52.562;13.418;2022-12-18T10:25:18;31.00;;;17.03;;
22826;SDS011;11580;52.562;13.418;2022-12-18T10:27:51;28.00;;;16.33;;
22826;SDS011;11580;52.562;13.418;2022-12-18T10:30:24;27.27;;;17.40;;
22826;SDS011;11580;52.562;13.418;2022-12-18T10:32:52;29.77;;;16.40;;
22826;SDS011;11580;52.562;13.418;2022-12-18T10:35:22;29.60;;;16.10;;
22826;SDS011;11580;52.562;13.418;2022-12-18T10:38:01;31.00;;;18.37;;
22826;SDS011;11580;52.562;13.418;2022-12-18T10:40:33;31.70;;;17.53;;
22826;SDS011;11580;52.562;13.418;2022-12-18T10:43:19;28.30;;;16.30;;
22826;SDS011;11580;52.562;13.418;2022-12-18T10:45:58;31.63;;;17.53;;
22826;SDS011;11580;52.562;13.418;2022-12-18T10:48:29;30.07;;;18.30;;
22826;SDS011;11580;52.562;13.418;2022-12-18T10:50:59;25.97;;;15.40;;
22826;SDS011;11580;52.562;13.418;2022-12-18T10:53:27;26.73;;;16.70;;
22826;SDS011;11580;52.562;13.418;2022-12-18T10:56:00;28.77;;;17.13;;
22826;SDS011;11580;52.562;13.418;2022-12-18T10:58:32;27.97;;;16.00;;
22826;SDS011;11580;52.562;13.418;2022-12-18T11:01:02;29.30;;;17.37;;
22826;SDS011;11580;52.562;13.418;2022-12-18T11:03:35;28.07;;;17.33;;
22826;SDS011;11580;52.562;13.418;2022-12-18T11:06:05;29.23;;;17.23;;
22826;SDS011;11580;52.562;13.418;2022-12-18T11:08:35;26.93;;;15.87;;
22826;SDS011;11580;52.562;13.418;2022-12-18T11:11:09;25.73;;;16.97;;
22826;SDS011;11580;52.562;13.418;2022-12-18T11:13:53;33.57;;;17.57;;
22826;SDS011;11580;52.562;13.418;2022-12-18T11:16:28;30.53;;;19.07;;
22826;SDS011;11580;52.562;13.418;2022-12-18T11:19:09;27.97;;;16.73;;
22826;SDS011;11580;52.562;13.418;2022-12-18T11:21:49;31.50;;;16.67;;
22826;SDS011;11580;52.562;13.418;2022-12-18T11:24:20;33.27;;;18.17;;
22826;SDS011;11580;52.562;13.418;2022-12-18T11:26:57;29.10;;;15.40;;
22826;SDS011;11580;52.562;13.418;2022-12-18T11:29:33;25.40;;;15.47;;
22826;SDS011;11580;52.562;13.418;2022-12-18T11:35:04;26.20;;;15.70;;
22826;SDS011;11580;52.562;13.418;2022-12-18T11:37:46;23.10;;;14.13;;
22826;SDS011;11580;52.562;13.418;2022-12-18T11:40:20;25.40;;;15.90;;
22826;SDS011;11580;52.562;13.418;2022-12-18T11:42:59;25.73;;;15.93;;
22826;SDS011;11580;52.562;13.418;2022-12-18T11:45:35;27.10;;;19.00;;
22826;SDS011;11580;52.562;13.418;2022-12-18T11:48:14;22.03;;;15.47;;
22826;SDS011;11580;52.562;13.418;2022-12-18T11:50:48;29.00;;;16.50;;
22826;SDS011;11580;52.562;13.418;2022-12-18T11:53:17;26.43;;;15.20;;
22826;SDS011;11580;52.562;13.418;2022-12-18T11:55:55;25.37;;;15.57;;
22826;SDS011;11580;52.562;13.418;2022-12-18T11:58:38;26.23;;;17.13;;
22826;SDS011;11580;52.562;13.418;2022-12-18T12:01:16;23.20;;;15.93;;
22826;SDS011;11580;52.562;13.418;2022-12-18T12:04:03;22.73;;;14.70;;
22826;SDS011;11580;52.562;13.418;2022-12-18T12:06:50;25.33;;;15.07;;
22826;SDS011;11580;52.562;13.418;2022-12-18T12:09:27;22.83;;;15.30;;
22826;SDS011;11580;52.562;13.418;2022-12-18T12:12:06;22.63;;;15.20;;
22826;SDS011;11580;52.562;13.418;2022-12-18T12:14:55;26.33;;;14.43;;
22826;SDS011;11580;52.562;13.418;2022-12-18T12:17:34;25.30;;;15.33;;
22826;SDS011;11580;52.562;13.418;2022-12-18T12:20:11;25.90;;;15.33;;
22826;SDS011;11580;52.562;13.418;2022-12-18T12:22:49;16.67;;;13.03;;
22826;SDS011;11580;52.562;13.418;2022-12-18T12:25:29;25.00;;;15.10;;
22826;SDS011;11580;52.562;13.418;2022-12-18T12:28:09;21.23;;;14.30;;
22826;SDS011;11580;52.562;13.418;2022-12-18T12:31:05;21.20;;;15.00;;
22826;SDS011;11580;52.562;13.418;2022-12-18T12:33:47;23.17;;;14.00;;
22826;SDS011;11580;52.562;13.418;2022-12-18T12:36:26;24.80;;;14.47;;
22826;SDS011;11580;52.562;13.418;2022-12-18T12:39:04;22.20;;;15.60;;
22826;SDS011;11580;52.562;13.418;2022-12-18T12:41:36;24.70;;;15.43;;
22826;SDS011;11580;52.562;13.418;2022-12-18T12:44:24;25.57;;;15.30;;
22826;SDS011;11580;52.562;13.418;2022-12-18T12:46:57;20.17;;;14.47;;
22826;SDS011;11580;52.562;13.418;2022-12-18T12:49:31;19.53;;;14.40;;
22826;SDS011;11580;52.562;13.418;2022-12-18T12:52:00;21.80;;;16.00;;
22826;SDS011;11580;52.562;13.418;2022-12-18T12:54:37;24.67;;;15.63;;
22826;SDS011;11580;52.562;13.418;2022-12-18T12:57:05;23.00;;;15.50;;
22826;SDS011;11580;52.562;13.418;2022-12-18T12:59:45;22.13;;;15.70;;
22826;SDS011;11580;52.562;13.418;2022-12-18T13:02:26;24.47;;;15.30;;
22826;SDS011;11580;52.562;13.418;2022-12-18T13:05:02;23.70;;;14.40;;
22826;SDS011;11580;52.562;13.418;2022-12-18T13:07:45;22.93;;;14.00;;
22826;SDS011;11580;52.562;13.418;2022-12-18T13:10:24;21.80;;;13.80;;
22826;SDS011;11580;52.562;13.418;2022-12-18T13:13:01;18.83;;;12.80;;
22826;SDS011;11580;52.562;13.418;2022-12-18T13:15:31;20.63;;;14.50;;
22826;SDS011;11580;52.562;13.418;2022-12-18T13:18:10;23.43;;;15.53;;
22826;SDS011;11580;52.562;13.418;2022-12-18T13:20:43;20.03;;;14.43;;
22826;SDS011;11580;52.562;13.418;2022-12-18T13:23:19;19.60;;;13.53;;
22826;SDS011;11580;52.562;13.418;2022-12-18T13:25:58;23.13;;;15.10;;
22826;SDS011;11580;52.562;13.418;2022-12-18T13:28:50;20.50;;;13.67;;
22826;SDS011;11580;52.562;13.418;2022-12-18T13:34:46;26.27;;;15.60;;
22826;SDS011;11580;52.562;13.418;2022-12-18T13:46:19;20.60;;;14.43;;
22826;SDS011;11580;52.562;13.418;2022-12-18T13:48:53;20.73;;;13.87;;
22826;SDS011;11580;52.562;13.418;2022-12-18T13:51:29;22.27;;;13.27;;
22826;SDS011;11580;52.562;13.418;2022-12-18T13:54:00;17.57;;;12.87;;
22826;SDS011;11580;52.562;13.418;2022-12-18T13:56:31;18.73;;;13.70;;
22826;SDS011;11580;52.562;13.418;2022-12-18T13:59:06;18.90;;;13.00;;
22826;SDS011;11580;52.562;13.418;2022-12-18T14:01:48;14.87;;;13.00;;
22826;SDS011;11580;52.562;13.418;2022-12-18T14:04:24;21.07;;;14.00;;
22826;SDS011;11580;52.562;13.418;2022-12-18T14:06:57;20.07;;;15.17;;
22826;SDS011;11580;52.562;13.418;2022-12-18T14:09:29;19.10;;;15.00;;
22826;SDS011;11580;52.562;13.418;2022-12-18T14:12:01;23.50;;;16.20;;
22826;SDS011;11580;52.562;13.418;2022-12-18T14:14:44;23.57;;;14.87;;
22826;SDS011;11580;52.562;13.418;2022-12-18T14:17:13;20.27;;;14.33;;
22826;SDS011;11580;52.562;13.418;2022-12-18T14:19:42;19.70;;;14.17;;
22826;SDS011;11580;52.562;13.418;2022-12-18T14:22:18;19.40;;;12.83;;
22826;SDS011;11580;52.562;13.418;2022-12-18T14:25:04;26.90;;;14.43;;
22826;SDS011;11580;52.562;13.418;2022-12-18T14:27:42;20.93;;;15.57;;
22826;SDS011;11580;52.562;13.418;2022-12-18T14:30:23;23.03;;;15.33;;
22826;SDS011;11580;52.562;13.418;2022-12-18T14:33:02;18.67;;;13.93;;
22826;SDS011;11580;52.562;13.418;2022-12-18T14:35:32;20.60;;;13.57;;
22826;SDS011;11580;52.562;13.418;2022-12-18T14:38:15;17.87;;;12.63;;
22826;SDS011;11580;52.562;13.418;2022-12-18T14:40:51;23.23;;;13.70;;
22826;SDS011;11580;52.562;13.418;2022-12-18T14:43:20;19.20;;;14.30;;
22826;SDS011;11580;52.562;13.418;2022-12-18T14:45:48;18.10;;;12.97;;
22826;SDS011;11580;52.562;13.418;2022-12-18T14:48:16;18.00;;;12.70;;
22826;SDS011;11580;52.562;13.418;2022-12-18T14:50:54;18.40;;;12.57;;
22826;SDS011;11580;52.562;13.418;2022-12-18T14:53:39;15.67;;;12.77;;
22826;SDS011;11580;52.562;13.418;2022-12-18T14:56:14;17.97;;;12.87;;
22826;SDS011;11580;52.562;13.418;2022-12-18T14:58:45;18.70;;;12.90;;